Time;durP1;ratioP1;P1;durP2;ratioP2;P2;SDS_P1;SDS_P2;PMS_P1;PMS_P2;Temp;Humidity;BMP_temperature;BMP_pressure;BME280_temperature;BME280_humidity;BME280_pressure;Samples;Min_cycle;Max_cycle;Signal;HPM_P1;HPM_P2
2021/12/16 00:07:46;;;;;;;102.05;56.22;;;;;;;7.49;100.00;103269.19;5073308;28;20115;-72
2021/12/16 00:10:28;;;;;;;100.82;55.92;;;;;;;7.46;100.00;103258.50;5073284;28;20077;-72
2021/12/16 00:32:18;;;;;;;104.32;57.75;;;;;;;7.41;100.00;103273.09;5071259;28;20044;-72
2021/12/16 00:34:45;;;;;;;105.43;56.72;;;;;;;7.42;100.00;103272.31;5068968;28;20025;-66
2021/12/16 00:37:11;;;;;;;102.57;55.65;;;;;;;7.42;100.00;103261.78;5073049;28;20025;-67
2021/12/16 00:39:38;;;;;;;106.20;56.70;;;;;;;7.44;100.00;103268.00;5072601;28;20391;-67
2021/12/16 00:42:12;;;;;;;106.57;58.88;;;;;;;7.43;100.00;103268.84;5072737;28;20046;-69
2021/12/16 00:49:46;;;;;;;102.97;58.15;;;;;;;7.42;100.00;103267.94;5072619;28;20021;-69
2021/12/16 00:55:11;;;;;;;100.63;55.28;;;;;;;7.44;100.00;103270.66;5070903;28;20040;-70
2021/12/16 00:57:38;;;;;;;102.22;57.70;;;;;;;7.43;100.00;103275.00;5072520;28;20036;-68
2021/12/16 01:00:06;;;;;;;102.30;55.25;;;;;;;7.43;100.00;103276.75;5072639;28;20453;-69
2021/12/16 01:03:03;;;;;;;103.20;56.63;;;;;;;7.45;100.00;103267.19;5072597;28;20020;-69
2021/12/16 01:35:56;;;;;;;101.40;56.30;;;;;;;7.50;100.00;103289.44;5030473;28;20044;-68
2021/12/16 01:55:07;;;;;;;99.47;55.80;;;;;;;7.45;100.00;103304.03;5030195;28;20480;-69
2021/12/16 01:57:34;;;;;;;102.85;59.20;;;;;;;7.43;100.00;103303.97;5071251;28;20135;-69
2021/12/16 02:00:07;;;;;;;101.47;57.20;;;;;;;7.43;100.00;103311.84;5071662;28;20127;-69
2021/12/16 02:02:51;;;;;;;100.65;55.97;;;;;;;7.43;100.00;103313.59;5072393;28;20390;-69
2021/12/16 02:05:33;;;;;;;102.00;57.22;;;;;;;7.45;100.00;103311.94;5068512;28;20021;-69
2021/12/16 02:10:35;;;;;;;101.68;57.55;;;;;;;7.43;100.00;103317.13;5071863;28;20055;-67
2021/12/16 02:35:24;;;;;;;97.07;56.47;;;;;;;7.45;100.00;103319.84;5073248;28;20108;-69
2021/12/16 02:37:48;;;;;;;98.18;56.10;;;;;;;7.43;100.00;103321.50;5072703;28;20047;-68
2021/12/16 02:40:16;;;;;;;98.22;55.35;;;;;;;7.45;100.00;103330.38;5072726;28;20037;-69
2021/12/16 02:43:02;;;;;;;98.70;58.50;;;;;;;7.45;100.00;103326.00;5073062;28;20120;-69
2021/12/16 02:48:33;;;;;;;97.70;57.75;;;;;;;7.43;100.00;103324.13;5073189;28;20521;-67
2021/12/16 02:51:14;;;;;;;97.95;55.65;;;;;;;7.44;100.00;103333.81;5072911;28;20127;-67
2021/12/16 02:53:44;;;;;;;95.18;56.45;;;;;;;7.42;100.00;103332.81;5072874;28;20032;-71
2021/12/16 02:56:09;;;;;;;100.03;56.92;;;;;;;7.43;100.00;103335.53;5074076;28;20037;-72
2021/12/16 02:58:37;;;;;;;97.07;56.10;;;;;;;7.45;100.00;103328.63;5074714;28;20032;-72
2021/12/16 03:01:08;;;;;;;102.63;56.92;;;;;;;7.47;100.00;103333.97;5073429;28;20032;-72
2021/12/16 03:03:37;;;;;;;96.75;55.97;;;;;;;7.45;100.00;103326.00;5074842;28;20429;-71
2021/12/16 03:06:03;;;;;;;101.15;57.13;;;;;;;7.44;100.00;103328.53;5074697;28;20437;-71
2021/12/16 03:08:30;;;;;;;91.65;54.22;;;;;;;7.42;100.00;103333.72;5074654;28;20479;-71
2021/12/16 03:13:48;;;;;;;96.63;55.25;;;;;;;7.43;100.00;103326.75;5074337;28;20068;-72
2021/12/16 03:16:27;;;;;;;95.32;56.50;;;;;;;7.43;100.00;103321.50;5074358;28;20376;-68
2021/12/16 03:19:11;;;;;;;101.10;57.47;;;;;;;7.43;100.00;103321.50;5072973;28;20115;-68
2021/12/16 03:21:43;;;;;;;94.20;54.92;;;;;;;7.42;100.00;103331.09;5074226;28;20033;-71
2021/12/16 03:37:21;;;;;;;97.65;56.75;;;;;;;7.40;100.00;103330.13;5074078;28;20090;-69
2021/12/16 03:39:47;;;;;;;94.60;55.88;;;;;;;7.40;100.00;103331.84;5070236;28;20024;-72
2021/12/16 03:42:16;;;;;;;97.15;56.83;;;;;;;7.39;100.00;103330.03;5074032;28;20029;-72
2021/12/16 03:44:52;;;;;;;96.75;57.10;;;;;;;7.40;100.00;103331.84;5073737;28;20017;-70
2021/12/16 03:47:20;;;;;;;93.20;56.95;;;;;;;7.39;100.00;103330.91;5069947;28;20028;-70
2021/12/16 03:49:46;;;;;;;97.32;57.00;;;;;;;7.38;100.00;103330.84;5073829;28;20024;-72
2021/12/16 03:52:12;;;;;;;95.50;55.78;;;;;;;7.36;100.00;103337.75;5073543;28;20032;-72
2021/12/16 03:54:49;;;;;;;100.32;57.42;;;;;;;7.34;100.00;103348.19;5073530;28;20024;-72
2021/12/16 03:57:17;;;;;;;100.90;58.05;;;;;;;7.31;100.00;103348.91;5073636;28;20029;-72
2021/12/16 03:59:44;;;;;;;102.22;58.10;;;;;;;7.31;100.00;103353.25;5073227;28;20044;-72
2021/12/16 04:02:20;;;;;;;101.22;57.60;;;;;;;7.34;100.00;103356.09;5073635;28;20024;-70
2021/12/16 04:04:47;;;;;;;103.13;59.05;;;;;;;7.36;100.00;103356.16;5073614;28;20024;-70
2021/12/16 04:07:13;;;;;;;102.47;60.10;;;;;;;7.33;100.00;103352.53;5073522;28;20028;-72
2021/12/16 04:09:38;;;;;;;101.28;58.25;;;;;;;7.36;100.00;103348.28;5073217;28;20089;-71
2021/12/16 04:12:09;;;;;;;98.82;57.42;;;;;;;7.36;100.00;103350.91;5073156;28;20029;-71
2021/12/16 04:14:36;;;;;;;99.35;56.72;;;;;;;7.35;100.00;103355.25;5073281;28;20025;-69
2021/12/16 04:17:03;;;;;;;99.88;57.22;;;;;;;7.32;100.00;103358.63;5073286;28;20043;-71
2021/12/16 04:19:31;;;;;;;100.38;58.97;;;;;;;7.30;100.00;103354.97;5073061;28;20372;-71
2021/12/16 04:21:59;;;;;;;95.57;56.80;;;;;;;7.27;100.00;103349.56;5073491;28;20029;-69
2021/12/16 04:24:26;;;;;;;98.13;58.47;;;;;;;7.27;100.00;103352.19;5073210;28;20028;-72
2021/12/16 04:26:53;;;;;;;102.57;60.35;;;;;;;7.30;100.00;103356.72;5072973;28;20107;-70
2021/12/16 04:29:22;;;;;;;107.50;57.60;;;;;;;7.33;100.00;103356.91;5072802;28;20035;-69
2021/12/16 04:31:47;;;;;;;105.55;58.95;;;;;;;7.29;100.00;103349.63;5069194;28;20105;-71
2021/12/16 04:34:12;;;;;;;105.45;58.22;;;;;;;7.30;100.00;103348.81;5073010;28;20100;-70
2021/12/16 04:36:39;;;;;;;106.45;59.75;;;;;;;7.28;100.00;103343.47;5073128;28;20047;-69
2021/12/16 04:39:09;;;;;;;105.78;59.08;;;;;;;7.29;100.00;103350.53;5071631;28;20483;-69
2021/12/16 04:41:34;;;;;;;100.47;57.63;;;;;;;7.27;100.00;103351.28;5073005;28;20535;-67
2021/12/16 04:44:02;;;;;;;103.90;58.95;;;;;;;7.25;100.00;103340.66;5072580;28;20060;-69
2021/12/16 04:46:29;;;;;;;107.18;58.20;;;;;;;7.23;100.00;103342.28;5072688;28;20086;-69
2021/12/16 04:48:57;;;;;;;104.88;60.42;;;;;;;7.18;100.00;103342.84;5072714;28;20064;-68
2021/12/16 04:51:26;;;;;;;111.22;61.63;;;;;;;7.16;100.00;103348.00;5072662;28;20052;-68
2021/12/16 04:53:52;;;;;;;113.38;63.20;;;;;;;7.12;100.00;103346.94;5072816;28;20028;-71
2021/12/16 04:56:19;;;;;;;113.93;60.30;;;;;;;7.10;100.00;103340.66;5072777;28;20020;-70
2021/12/16 04:58:47;;;;;;;110.18;60.45;;;;;;;7.06;100.00;103343.03;5072630;28;20028;-68
2021/12/16 05:01:13;;;;;;;108.75;60.38;;;;;;;7.01;100.00;103347.13;5072680;28;20502;-68
2021/12/16 05:03:39;;;;;;;106.63;58.88;;;;;;;6.92;100.00;103345.75;5072779;28;20430;-67
2021/12/16 05:06:05;;;;;;;105.95;59.03;;;;;;;6.87;100.00;103349.81;5072838;28;20063;-68
2021/12/16 05:08:31;;;;;;;116.57;62.33;;;;;;;6.79;100.00;103351.13;5072600;28;20028;-69
2021/12/16 05:10:59;;;;;;;113.70;59.53;;;;;;;6.67;100.00;103351.28;5072419;28;20024;-68
2021/12/16 05:13:27;;;;;;;117.82;61.75;;;;;;;6.60;100.00;103343.84;5072626;28;20519;-69
2021/12/16 05:15:56;;;;;;;117.38;63.17;;;;;;;6.59;100.00;103350.81;5072475;28;20035;-70
2021/12/16 05:18:30;;;;;;;113.60;60.80;;;;;;;6.53;100.00;103353.06;5072590;28;20029;-71
2021/12/16 05:20:56;;;;;;;122.28;63.65;;;;;;;6.52;100.00;103346.00;5072611;28;20029;-69
2021/12/16 05:28:48;;;;;;;134.90;64.43;;;;;;;6.30;100.00;103350.75;5072672;28;20036;-69
2021/12/16 05:31:14;;;;;;;135.63;67.50;;;;;;;6.27;100.00;103357.63;5072198;28;20021;-69
2021/12/16 05:33:40;;;;;;;146.32;69.90;;;;;;;6.28;100.00;103362.06;5072264;28;20379;-69
2021/12/16 05:36:06;;;;;;;145.57;71.80;;;;;;;6.27;100.00;103365.50;5072364;28;20024;-69
2021/12/16 05:38:31;;;;;;;149.48;71.80;;;;;;;6.22;100.00;103364.31;5072240;28;20039;-69
2021/12/16 05:40:58;;;;;;;156.73;74.35;;;;;;;6.22;100.00;103366.94;5072401;28;20178;-69
2021/12/16 05:43:25;;;;;;;148.35;69.65;;;;;;;6.15;100.00;103372.63;5072618;28;20386;-69
2021/12/16 05:45:54;;;;;;;151.38;69.85;;;;;;;6.04;100.00;103371.97;5072204;28;20025;-71
2021/12/16 05:48:22;;;;;;;149.27;72.90;;;;;;;6.06;100.00;103380.84;5068541;28;20107;-67
2021/12/16 05:50:51;;;;;;;159.93;73.05;;;;;;;5.97;100.00;103380.25;5068550;28;20067;-72
2021/12/16 05:53:18;;;;;;;155.05;71.43;;;;;;;5.93;100.00;103384.38;5068136;28;20490;-72
2021/12/16 05:55:44;;;;;;;156.65;74.28;;;;;;;5.89;100.00;103384.97;5071955;28;20426;-73
2021/12/16 05:58:14;;;;;;;163.50;76.00;;;;;;;5.85;100.00;103382.94;5073457;28;20023;-71
2021/12/16 06:00:42;;;;;;;190.90;79.30;;;;;;;5.80;100.00;103383.50;5075931;28;20090;-73
2021/12/16 06:03:08;;;;;;;185.65;75.40;;;;;;;5.75;100.00;103388.41;5075785;28;20055;-68
2021/12/16 06:05:34;;;;;;;193.70;78.43;;;;;;;5.73;100.00;103395.31;5074513;28;20032;-70
2021/12/16 06:07:59;;;;;;;205.30;78.43;;;;;;;5.70;100.00;103398.63;5074588;28;20029;-73
2021/12/16 06:13:10;;;;;;;190.10;80.05;;;;;;;5.70;100.00;103400.34;5075916;28;20146;-72
2021/12/16 06:26:30;;;;;;;239.32;90.05;;;;;;;5.63;100.00;103408.63;5072695;28;20070;-74
2021/12/16 06:28:56;;;;;;;246.73;90.22;;;;;;;5.65;100.00;103405.31;5072368;28;20629;-78
2021/12/16 06:31:21;;;;;;;237.93;90.38;;;;;;;5.65;100.00;103413.19;5072327;28;20112;-71
2021/12/16 06:33:47;;;;;;;241.93;89.00;;;;;;;5.71;100.00;103418.81;5072600;28;20103;-74
2021/12/16 06:36:13;;;;;;;350.90;90.82;;;;;;;5.60;100.00;103409.34;5072582;28;20024;-71
2021/12/16 06:38:38;;;;;;;423.23;94.22;;;;;;;5.57;100.00;103412.66;5073166;28;20115;-80
2021/12/16 06:41:04;;;;;;;218.45;83.25;;;;;;;5.61;100.00;103415.47;5073202;28;20082;-78
2021/12/16 06:43:31;;;;;;;240.13;89.90;;;;;;;5.62;100.00;103418.25;5072107;28;20020;-70
2021/12/16 06:45:58;;;;;;;242.35;88.70;;;;;;;5.56;100.00;103413.50;5072866;28;20028;-71
2021/12/16 06:48:29;;;;;;;240.68;86.43;;;;;;;5.55;100.00;103422.16;5073032;28;20040;-75
2021/12/16 06:50:59;;;;;;;248.07;84.10;;;;;;;5.48;100.00;103419.94;5072175;28;20028;-72
2021/12/16 06:53:32;;;;;;;275.00;91.65;;;;;;;5.47;100.00;103419.84;5072325;28;20102;-79
2021/12/16 06:58:45;;;;;;;1094.85;118.30;;;;;;;5.27;100.00;103418.50;5072457;28;20145;-70
2021/12/16 07:01:38;;;;;;;673.10;95.15;;;;;;;5.12;100.00;103434.13;5069877;28;20119;-72
2021/12/16 07:04:07;;;;;;;254.55;86.40;;;;;;;5.26;100.00;103425.47;5069437;28;20024;-70
2021/12/16 07:06:34;;;;;;;282.30;92.22;;;;;;;5.27;100.00;103427.28;5069316;28;20029;-70
2021/12/16 07:09:24;;;;;;;255.50;93.15;;;;;;;5.27;100.00;103431.63;5071429;28;20021;-74
2021/12/16 07:11:53;;;;;;;271.20;94.07;;;;;;;5.34;100.00;103434.75;5070462;28;20060;-71
2021/12/16 07:14:23;;;;;;;315.45;97.22;;;;;;;5.31;100.00;103436.25;5071959;28;20576;-71
2021/12/16 07:16:52;;;;;;;287.85;94.90;;;;;;;5.31;100.00;103445.03;5071199;28;20081;-74
2021/12/16 07:19:18;;;;;;;265.42;97.38;;;;;;;5.31;100.00;103444.13;5071714;28;20510;-74
2021/12/16 07:21:45;;;;;;;275.77;97.85;;;;;;;5.32;100.00;103459.06;5071131;28;20033;-72
2021/12/16 07:24:13;;;;;;;292.52;96.45;;;;;;;5.26;100.00;103450.78;5072164;28;20024;-71
2021/12/16 07:26:39;;;;;;;287.95;99.68;;;;;;;5.26;100.00;103453.41;5071759;28;20036;-71
2021/12/16 07:29:06;;;;;;;303.90;91.68;;;;;;;5.07;100.00;103467.91;5071936;28;20032;-70
2021/12/16 07:31:33;;;;;;;144.98;66.85;;;;;;;4.78;100.00;103484.22;5068114;28;20016;-69
2021/12/16 07:33:59;;;;;;;312.13;86.25;;;;;;;4.70;100.00;103488.91;5071442;28;20086;-69
2021/12/16 07:36:25;;;;;;;439.55;91.07;;;;;;;4.67;100.00;103486.06;5071542;28;20052;-72
2021/12/16 07:38:52;;;;;;;243.35;86.78;;;;;;;4.73;100.00;103496.97;5071729;28;20036;-72
2021/12/16 07:41:20;;;;;;;250.20;87.40;;;;;;;4.71;100.00;103494.25;5071117;28;20031;-77
2021/12/16 07:43:58;;;;;;;161.68;67.35;;;;;;;4.47;100.00;103493.44;5071323;28;20032;-67
2021/12/16 07:46:24;;;;;;;1205.15;121.07;;;;;;;4.52;100.00;103492.03;5070593;28;20115;-69
2021/12/16 07:48:49;;;;;;;739.28;101.47;;;;;;;4.51;100.00;103495.50;5071493;28;20029;-70
2021/12/16 07:51:15;;;;;;;418.02;90.05;;;;;;;4.56;100.00;103508.91;5070794;28;20032;-70
2021/12/16 07:53:41;;;;;;;294.45;100.57;;;;;;;4.60;100.00;103505.72;5071486;28;20115;-69
2021/12/16 07:56:09;;;;;;;134.00;63.40;;;;;;;4.24;100.00;103514.41;5070754;28;20391;-70
2021/12/16 07:58:35;;;;;;;115.30;58.10;;;;;;;4.04;100.00;103519.13;5071322;28;20029;-69
2021/12/16 08:01:02;;;;;;;99.75;54.95;;;;;;;3.90;100.00;103531.16;5070595;28;20488;-70
2021/12/16 08:03:34;;;;;;;93.18;50.85;;;;;;;3.75;100.00;103530.03;5070981;28;20041;-70
2021/12/16 08:06:01;;;;;;;83.90;51.70;;;;;;;3.79;100.00;103529.47;5071045;28;20094;-68
2021/12/16 08:08:26;;;;;;;90.43;52.03;;;;;;;3.75;100.00;103536.19;5070501;28;20153;-70
2021/12/16 08:10:53;;;;;;;126.88;59.28;;;;;;;3.79;100.00;103538.22;5070446;28;20569;-70
2021/12/16 08:13:19;;;;;;;152.00;57.85;;;;;;;3.89;100.00;103544.16;5070763;28;20040;-70
2021/12/16 08:15:44;;;;;;;148.43;56.78;;;;;;;3.77;100.00;103552.00;5071221;28;20028;-67
2021/12/16 08:18:10;;;;;;;139.82;56.28;;;;;;;3.71;100.00;103547.19;5071079;28;20025;-69
2021/12/16 08:20:37;;;;;;;162.98;52.85;;;;;;;3.59;100.00;103548.91;5068368;28;20441;-69
2021/12/16 08:23:02;;;;;;;327.63;63.88;;;;;;;3.78;100.00;103551.19;5070009;28;20032;-69
2021/12/16 08:25:30;;;;;;;277.58;63.80;;;;;;;3.82;100.00;103562.00;5070524;28;20032;-69
2021/12/16 08:27:56;;;;;;;191.75;64.35;;;;;;;3.97;100.00;103562.25;5070558;28;20068;-70
2021/12/16 08:30:26;;;;;;;191.63;67.78;;;;;;;4.03;100.00;103567.03;5068946;28;20479;-69
2021/12/16 08:32:52;;;;;;;155.23;62.30;;;;;;;4.16;100.00;103561.91;5070479;28;20059;-69
2021/12/16 08:35:17;;;;;;;520.63;90.32;;;;;;;4.36;100.00;103567.72;5067983;28;20052;-70
2021/12/16 08:37:43;;;;;;;359.63;79.00;;;;;;;4.33;100.00;103567.50;5070152;28;20759;-70
2021/12/16 08:40:13;;;;;;;335.17;85.18;;;;;;;4.59;100.00;103577.25;5069812;28;20043;-69
2021/12/16 08:42:39;;;;;;;156.15;77.75;;;;;;;4.69;100.00;103573.59;5070510;28;20020;-69
2021/12/16 08:45:09;;;;;;;157.43;72.38;;;;;;;4.69;100.00;103579.72;5070380;28;20031;-69
2021/12/16 08:47:35;;;;;;;249.32;92.82;;;;;;;4.92;100.00;103576.94;5070423;28;20764;-70
2021/12/16 08:50:00;;;;;;;223.48;81.53;;;;;;;4.83;100.00;103567.59;5069639;28;20020;-70
2021/12/16 08:52:27;;;;;;;113.18;66.65;;;;;;;5.00;100.00;103581.00;5069450;28;20471;-68
2021/12/16 08:54:52;;;;;;;219.30;88.88;;;;;;;5.11;100.00;103585.31;5070704;28;20024;-67
2021/12/16 08:57:18;;;;;;;179.25;86.15;;;;;;;5.37;100.00;103580.97;5070474;28;20463;-67
2021/12/16 08:59:44;;;;;;;160.88;81.05;;;;;;;5.45;100.00;103594.63;5070288;28;20059;-67
2021/12/16 09:02:10;;;;;;;177.13;87.82;;;;;;;5.74;100.00;103601.88;5069429;28;20568;-69
2021/12/16 09:04:39;;;;;;;161.57;85.32;;;;;;;5.96;100.00;103606.84;5071281;28;20037;-69
2021/12/16 09:07:09;;;;;;;216.13;93.55;;;;;;;6.06;100.00;103604.06;5072407;28;20383;-69
2021/12/16 09:09:36;;;;;;;165.50;83.80;;;;;;;6.14;100.00;103608.94;5072242;28;20028;-69
2021/12/16 09:12:12;;;;;;;177.20;86.15;;;;;;;6.38;100.00;103615.81;5071994;28;20027;-70
2021/12/16 09:14:40;;;;;;;148.55;77.82;;;;;;;6.37;100.00;103589.44;5071835;28;20078;-68
2021/12/16 09:17:10;;;;;;;137.13;72.22;;;;;;;6.35;100.00;103597.22;5072276;28;20434;-68
2021/12/16 09:19:41;;;;;;;131.95;72.22;;;;;;;6.54;100.00;103609.84;5072289;28;20040;-68
2021/12/16 09:22:08;;;;;;;130.13;67.68;;;;;;;6.44;100.00;103615.31;5071906;28;20032;-68
2021/12/16 09:24:34;;;;;;;121.22;70.15;;;;;;;6.75;100.00;103609.41;5104663;28;20025;-68
2021/12/16 09:26:59;;;;;;;122.82;68.20;;;;;;;7.01;100.00;103599.63;5072538;28;20031;-67
2021/12/16 09:29:25;;;;;;;98.70;60.38;;;;;;;7.00;100.00;103608.31;5072214;28;20048;-69
2021/12/16 09:31:51;;;;;;;98.22;59.58;;;;;;;7.07;100.00;103616.69;5074602;28;20027;-69
2021/12/16 09:34:16;;;;;;;95.47;58.33;;;;;;;7.14;100.00;103613.63;5076615;28;20027;-68
2021/12/16 09:36:45;;;;;;;95.80;59.58;;;;;;;7.22;100.00;103610.56;5076294;28;20036;-67
2021/12/16 09:39:16;;;;;;;91.97;57.40;;;;;;;7.47;100.00;103619.19;5076460;28;20024;-69
2021/12/16 09:41:46;;;;;;;86.90;56.78;;;;;;;7.77;100.00;103620.94;5076392;28;20487;-68
2021/12/16 09:44:12;;;;;;;84.45;57.00;;;;;;;8.12;100.00;103615.13;5076081;28;20119;-69
2021/12/16 09:46:40;;;;;;;74.18;51.10;;;;;;;8.27;100.00;103622.09;5076431;28;20142;-68
2021/12/16 09:49:06;;;;;;;75.45;51.17;;;;;;;8.29;100.00;103621.38;5076538;28;20028;-69
2021/12/16 09:51:34;;;;;;;68.80;50.78;;;;;;;8.46;100.00;103617.13;5076088;28;20020;-66
2021/12/16 09:54:06;;;;;;;69.35;49.03;;;;;;;8.63;100.00;103615.41;5072236;28;20025;-69
2021/12/16 09:56:33;;;;;;;71.43;51.50;;;;;;;8.88;100.00;103629.97;5076092;28;20025;-68
2021/12/16 09:59:00;;;;;;;63.75;47.50;;;;;;;8.97;100.00;103614.69;5103956;28;20387;-69
2021/12/16 10:01:26;;;;;;;60.03;45.40;;;;;;;8.80;100.00;103604.94;5075750;28;20067;-68
2021/12/16 10:03:57;;;;;;;63.55;48.17;;;;;;;8.85;100.00;103627.19;5076061;28;20035;-68
2021/12/16 10:06:22;;;;;;;64.13;48.20;;;;;;;8.94;100.00;103625.06;5076120;28;20115;-68
2021/12/16 10:08:48;;;;;;;61.55;47.38;;;;;;;9.00;100.00;103620.13;5075652;28;20111;-67
2021/12/16 10:11:16;;;;;;;60.20;46.67;;;;;;;9.04;100.00;103621.19;5075883;28;20017;-68
2021/12/16 10:19:18;;;;;;;58.47;44.65;;;;;;;9.76;100.00;103617.13;5059638;28;20438;-68
2021/12/16 10:21:45;;;;;;;55.50;42.63;;;;;;;10.19;100.00;103617.47;5073241;28;20078;-69
2021/12/16 10:24:31;;;;;;;56.78;41.85;;;;;;;10.55;100.00;103615.78;5073151;28;20036;-69
2021/12/16 10:27:09;;;;;;;55.58;41.30;;;;;;;11.08;100.00;103629.75;5072766;28;20033;-69
2021/12/16 10:29:40;;;;;;;52.35;40.20;;;;;;;11.61;100.00;103622.41;5069940;28;20033;-68
2021/12/16 10:32:26;;;;;;;52.35;38.10;;;;;;;11.57;100.00;103622.22;5073262;28;20029;-69
2021/12/16 10:34:57;;;;;;;49.22;38.13;;;;;;;11.45;100.00;103614.63;5071739;28;20040;-68
2021/12/16 10:37:34;;;;;;;51.10;37.33;;;;;;;11.50;100.00;103623.69;5072759;28;20111;-69
2021/12/16 10:40:30;;;;;;;50.17;37.50;;;;;;;11.39;100.00;103617.00;5072356;28;20052;-67
2021/12/16 10:42:58;;;;;;;51.90;38.85;;;;;;;11.25;100.00;103614.63;5069445;28;20043;-67
2021/12/16 10:45:28;;;;;;;50.45;37.05;;;;;;;12.05;100.00;103625.22;5072528;28;20032;-68
2021/12/16 10:48:11;;;;;;;47.83;36.22;;;;;;;12.91;99.66;103626.03;5072804;28;20415;-67
2021/12/16 10:50:54;;;;;;;45.20;35.15;;;;;;;12.80;100.00;103624.75;5072956;28;20028;-68
2021/12/16 10:53:38;;;;;;;;;;;;;;;13.16;100.00;103629.63;5071348;28;20341;-67
2021/12/16 10:56:04;;;;;;;49.13;34.38;;;;;;;12.95;98.64;103612.91;5074915;28;20355;-68
2021/12/16 10:58:54;;;;;;;50.40;34.95;;;;;;;13.50;100.00;103617.66;5074700;28;20024;-67
2021/12/16 11:01:44;;;;;;;46.67;31.88;;;;;;;14.15;89.33;103613.66;5071802;28;20082;-67
2021/12/16 11:04:30;;;;;;;46.13;33.15;;;;;;;13.72;89.28;103619.31;5075112;28;20021;-69
2021/12/16 11:07:09;;;;;;;49.00;34.08;;;;;;;13.51;89.31;103629.19;5072895;28;20070;-67
2021/12/16 11:09:43;;;;;;;47.70;32.67;;;;;;;14.24;85.19;103628.19;5074812;28;20373;-70
2021/12/16 11:12:11;;;;;;;47.45;33.00;;;;;;;15.67;80.29;103626.28;5074413;28;20025;-69
2021/12/16 11:14:40;;;;;;;47.97;35.05;;;;;;;15.90;74.30;103627.78;5074613;28;20036;-68
2021/12/16 11:17:08;;;;;;;44.13;33.25;;;;;;;16.19;72.84;103628.53;5074526;28;20094;-68
2021/12/16 11:19:53;;;;;;;45.17;30.00;;;;;;;16.30;74.00;103624.38;5074294;28;20031;-67
2021/12/16 11:22:32;;;;;;;43.03;29.67;;;;;;;16.19;72.87;103631.19;5071565;28;20107;-67
2021/12/16 11:25:17;;;;;;;40.35;26.10;;;;;;;15.82;73.28;103638.25;5074098;28;20032;-67
2021/12/16 11:27:45;;;;;;;41.50;27.40;;;;;;;16.33;70.40;103632.44;5070782;28;20373;-68
2021/12/16 11:30:25;;;;;;;39.67;25.83;;;;;;;17.00;71.26;103629.56;5074347;28;20024;-67
2021/12/16 11:32:53;;;;;;;33.65;22.00;;;;;;;17.43;66.97;103634.91;5071306;28;20032;-68
2021/12/16 11:35:24;;;;;;;35.70;22.27;;;;;;;18.45;64.73;103626.91;5074185;28;20100;-69
2021/12/16 11:37:50;;;;;;;34.17;21.48;;;;;;;19.43;58.65;103628.25;5073819;28;20471;-69
2021/12/16 11:40:17;;;;;;;33.65;20.48;;;;;;;19.19;56.73;103623.47;5074156;28;20035;-70
2021/12/16 11:42:42;;;;;;;31.27;18.70;;;;;;;18.73;57.35;103630.00;5070360;28;20035;-67
2021/12/16 11:45:08;;;;;;;31.80;17.48;;;;;;;18.98;57.46;103619.66;5074170;28;20386;-68
2021/12/16 11:47:33;;;;;;;29.92;16.20;;;;;;;19.30;55.36;103613.78;5073620;28;20025;-69
2021/12/16 11:50:05;;;;;;;28.88;15.85;;;;;;;19.95;54.12;103619.81;5073929;28;20031;-69
2021/12/16 11:52:35;;;;;;;29.27;16.17;;;;;;;20.05;51.92;103605.59;5073536;28;20035;-68
2021/12/16 11:55:10;;;;;;;27.42;14.20;;;;;;;19.11;54.07;103623.38;5073874;28;20062;-69
2021/12/16 11:57:40;;;;;;;28.20;14.48;;;;;;;19.27;55.21;103619.13;5073559;28;20020;-68
2021/12/16 12:00:11;;;;;;;27.27;14.02;;;;;;;19.19;53.79;103612.75;5073364;28;20054;-70
2021/12/16 12:02:41;;;;;;;28.25;15.07;;;;;;;18.07;54.62;103611.16;5073741;28;20059;-68
2021/12/16 12:05:12;;;;;;;27.05;14.43;;;;;;;17.31;58.26;103611.47;5073724;28;20033;-68
2021/12/16 12:07:44;;;;;;;26.52;14.63;;;;;;;17.02;60.37;103609.13;5073367;28;20036;-68
2021/12/16 12:10:11;;;;;;;27.45;15.05;;;;;;;16.82;60.71;103605.06;5073791;28;20379;-68
2021/12/16 12:12:46;;;;;;;28.52;15.10;;;;;;;17.05;62.26;103619.88;5073430;28;20024;-69
2021/12/16 12:15:15;;;;;;;28.55;15.07;;;;;;;17.72;59.05;103614.06;5069165;28;20028;-70
2021/12/16 12:17:51;;;;;;;27.73;15.05;;;;;;;17.37;59.80;103611.63;5073530;28;20021;-69
2021/12/16 12:20:18;;;;;;;28.40;14.90;;;;;;;17.13;59.37;103613.81;5069904;28;20067;-69
2021/12/16 12:22:49;;;;;;;27.75;14.45;;;;;;;17.80;58.95;103607.97;5069325;28;20020;-68
2021/12/16 12:25:14;;;;;;;28.38;14.77;;;;;;;17.38;57.97;103609.84;5101576;28;20070;-69
2021/12/16 12:27:40;;;;;;;29.85;15.45;;;;;;;17.06;58.72;103602.97;5073168;28;20103;-68
2021/12/16 12:30:07;;;;;;;27.30;15.43;;;;;;;17.74;58.65;103606.97;5072765;28;20036;-70
2021/12/16 12:32:37;;;;;;;28.05;14.40;;;;;;;17.88;57.11;103611.66;5073071;28;20025;-69
2021/12/16 12:35:25;;;;;;;28.88;15.90;;;;;;;17.66;58.21;103605.91;5073340;28;20048;-69
2021/12/16 12:37:54;;;;;;;29.92;16.70;;;;;;;17.90;58.54;103599.25;5059664;28;20045;-70
2021/12/16 12:40:24;;;;;;;30.88;17.17;;;;;;;19.09;54.42;103601.94;5062053;28;20044;-69
2021/12/16 12:42:52;;;;;;;29.98;16.75;;;;;;;19.89;52.85;103603.66;5059201;28;20056;-69
2021/12/16 12:45:21;;;;;;;28.92;16.17;;;;;;;20.45;50.83;103608.59;5062353;28;20037;-69
2021/12/16 12:47:53;;;;;;;30.52;16.48;;;;;;;20.50;48.55;103604.16;5059116;28;20443;-70
2021/12/16 12:50:24;;;;;;;28.77;16.05;;;;;;;20.73;47.92;103609.66;5062162;28;20028;-69
2021/12/16 12:52:52;;;;;;;28.90;15.45;;;;;;;20.16;47.26;103603.00;5059198;28;20443;-69
2021/12/16 12:55:23;;;;;;;27.67;15.45;;;;;;;20.29;48.27;103607.56;5061888;28;20032;-68
2021/12/16 12:57:49;;;;;;;27.50;14.10;;;;;;;19.98;48.24;103601.06;5059150;28;20443;-68
2021/12/16 13:00:28;;;;;;;28.73;14.48;;;;;;;19.98;50.83;103599.28;5060940;28;20048;-67
2021/12/16 13:03:05;;;;;;;28.25;14.43;;;;;;;20.33;49.15;103592.41;5064365;28;20400;-69
2021/12/16 13:05:31;;;;;;;28.92;15.35;;;;;;;20.67;47.03;103589.94;5063403;28;20039;-67
2021/12/16 13:08:02;;;;;;;28.25;14.88;;;;;;;20.98;46.51;103592.75;5065574;28;20070;-69
2021/12/16 13:10:30;;;;;;;31.30;15.02;;;;;;;20.83;46.65;103597.19;5047364;28;20592;-73
2021/12/16 13:27:42;;;;;;;27.40;14.60;;;;;;;21.32;44.95;103588.41;5007767;28;20026;-71
2021/12/16 13:33:12;;;;;;;27.65;14.35;;;;;;;21.05;45.30;103603.53;5006109;28;20444;-70
2021/12/16 13:35:48;;;;;;;28.23;14.93;;;;;;;21.40;44.46;103591.09;5010494;28;20053;-68
2021/12/16 13:38:14;;;;;;;26.02;13.57;;;;;;;21.21;43.35;103592.84;5008812;28;20095;-71
2021/12/16 13:40:42;;;;;;;27.25;13.43;;;;;;;21.00;44.33;103599.03;5007623;28;20431;-71
2021/12/16 13:43:20;;;;;;;26.70;13.43;;;;;;;21.07;44.94;103600.84;5008900;28;20042;-71
2021/12/16 13:46:22;;;;;;;27.00;14.30;;;;;;;21.61;45.99;103603.75;4991365;28;20420;-71
2021/12/16 14:04:12;;;;;;;23.85;11.07;;;;;;;21.38;44.28;103598.28;5017641;28;20038;-71
2021/12/16 14:09:36;;;;;;;25.65;11.50;;;;;;;20.89;41.79;103604.38;4990444;28;20045;-71
2021/12/16 14:14:49;;;;;;;23.90;10.40;;;;;;;20.79;42.82;103608.81;4990507;28;20058;-71
2021/12/16 14:23:28;;;;;;;23.95;10.90;;;;;;;21.36;41.75;103608.13;4994503;28;20045;-70
2021/12/16 14:26:22;;;;;;;24.40;10.35;;;;;;;21.31;43.22;103616.19;4994130;28;20033;-70
2021/12/16 14:32:37;;;;;;;23.88;10.80;;;;;;;20.94;42.70;103621.44;5032629;28;20036;-70
2021/12/16 14:37:29;;;;;;;27.67;10.68;;;;;;;20.17;42.92;103613.75;5033177;28;20042;-70
2021/12/16 14:50:49;;;;;;;24.38;10.35;;;;;;;20.26;46.06;103631.72;5075440;28;20036;-70